<?xml version="1.0" encoding="UTF-8" standalone="yes"?>
<gpx xmlns="http://www.topografix.com/GPX/1/1" xmlns:gpxx="http://www.garmin.com/xmlschemas/GpxExtensions/v3" xmlns:rcxx="http://www.routeconverter.de/xmlschemas/RouteCatalogExtensions/1.0" xmlns:nmea="http://trekbuddy.net/2009/01/gpx/nmea" creator="Generated by Christian Pesch's RouteConverter. See http://www.routeconverter.de" version="1.1">
    <trk>
        <name>Aussicht to Lautariusgrab1</name>
        <trkseg>
            <trkpt lon="9.348614216" lat="51.213068962">
                <time>2010-09-17T17:12:35.000Z</time>
                <name>guidepost</name>
            </trkpt>
            <trkpt lon="9.345846176147461" lat="51.2188196313525">
                <ele>421.0</ele>
                <time>2010-09-17T17:12:18.500Z</time>
                <name>NeuePosition 2</name>
            </trkpt>
            <trkpt lon="9.347906112670898" lat="51.222743934023796">
                <ele>342.0</ele>
                <time>2010-09-17T17:13:33.250Z</time>
                <name>NeuePosition 3</name>
            </trkpt>
            <trkpt lon="9.349601269" lat="51.224162579">
                <time>2010-09-17T17:14:48.000Z</time>
                <name>Kreuzung</name>
                <desc>;Entscheidung leicht oder quer beet</desc>
            </trkpt>
            <trkpt lon="9.352197647094727" lat="51.22768915405944">
                <ele>421.0</ele>
                <time>2010-09-17T17:12:18.500Z</time>
                <name>NeuePosition 5</name>
            </trkpt>
            <trkpt lon="9.353055953979492" lat="51.227420405754806">
                <ele>450.0</ele>
                <time>2010-09-17T17:11:03.750Z</time>
                <name>NeuePosition 6</name>
            </trkpt>
            <trkpt lon="9.353141784667969" lat="51.22607664069073">
                <ele>455.0</ele>
                <time>2010-09-17T17:10:26.375Z</time>
                <name>NeuePosition 7</name>
            </trkpt>
            <trkpt lon="9.354493618" lat="51.226994991">
                <time>2010-09-17T17:09:49.000Z</time>
                <name>Bilstein, 459</name>
            </trkpt>
            <trkpt lon="9.356768131" lat="51.226201057">
                <time>2010-09-17T17:12:11.000Z</time>
                <name>Aussicht1</name>
            </trkpt>
            <trkpt lon="9.356403350830078" lat="51.22516285803609">
                <ele>280.0</ele>
                <time>2010-09-17T17:12:31.500Z</time>
                <name>NeuePosition 10</name>
            </trkpt>
            <trkpt lon="9.355974197387695" lat="51.22467908340353">
                <ele>289.0</ele>
                <time>2010-09-17T17:12:41.750Z</time>
                <name>NeuePosition 11</name>
            </trkpt>
            <trkpt lon="9.35211181640625" lat="51.22424905723907">
                <ele>295.0</ele>
                <time>2010-09-17T17:12:46.875Z</time>
                <name>NeuePosition 12</name>
            </trkpt>
            <trkpt lon="9.349794387817383" lat="51.22408779639158">
                <ele>305.0</ele>
                <time>2010-09-17T17:12:49.437Z</time>
                <name>NeuePosition 13</name>
            </trkpt>
            <trkpt lon="9.352540969848633" lat="51.22263642333937">
                <ele>307.0</ele>
                <time>2010-09-17T17:12:50.718Z</time>
                <name>NeuePosition 14</name>
            </trkpt>
            <trkpt lon="9.356317520141602" lat="51.222421401217204">
                <ele>300.0</ele>
                <time>2010-09-17T17:12:51.359Z</time>
                <name>NeuePosition 15</name>
            </trkpt>
            <trkpt lon="9.353399276733398" lat="51.220378640959666">
                <ele>290.0</ele>
                <time>2010-09-17T17:12:51.679Z</time>
                <name>NeuePosition 16</name>
            </trkpt>
            <trkpt lon="9.352197647094727" lat="51.21941098603933">
                <ele>290.0</ele>
                <time>2010-09-17T17:12:51.839Z</time>
                <name>NeuePosition 17</name>
            </trkpt>
            <trkpt lon="9.353399276733398" lat="51.219088429879115">
                <ele>286.0</ele>
                <time>2010-09-17T17:12:51.919Z</time>
                <name>NeuePosition 18</name>
            </trkpt>
            <trkpt lon="9.350738525390625" lat="51.21806698712828">
                <ele>285.0</ele>
                <time>2010-09-17T17:12:51.959Z</time>
                <name>NeuePosition 19</name>
            </trkpt>
            <trkpt lon="9.347219467163086" lat="51.21640037398551">
                <ele>274.0</ele>
                <time>2010-09-17T17:12:51.979Z</time>
                <name>NeuePosition 20</name>
            </trkpt>
            <trkpt lon="9.347305297851562" lat="51.21451864147375">
                <ele>276.0</ele>
                <time>2010-09-17T17:12:51.989Z</time>
                <name>NeuePosition 21</name>
            </trkpt>
            <trkpt lon="9.350996017456055" lat="51.21129263538235">
                <ele>278.0</ele>
                <time>2010-09-17T17:12:51.994Z</time>
                <name>NeuePosition 22,Parken</name>
            </trkpt>
            <trkpt lon="9.35281992" lat="51.209249496">
                <time>2010-09-17T17:12:52.000Z</time>
                <name>Lautariusgrab,Abstecher</name>
            </trkpt>
        </trkseg>
    </trk>
</gpx>
